createdAt,value
2022-08-25T00:00:13.733Z,3.50
2022-08-25T00:01:13.750Z,3.80
2022-08-25T00:02:13.817Z,3.30
2022-08-25T00:03:13.789Z,3.60
2022-08-25T00:04:13.903Z,4.30
2022-08-25T00:05:13.849Z,4.40
2022-08-25T00:06:13.849Z,3.80
2022-08-25T00:07:13.857Z,3.50
2022-08-25T00:08:13.878Z,3.80
2022-08-25T00:09:13.888Z,4.10
2022-08-25T00:10:13.909Z,3.90
2022-08-25T00:11:13.925Z,4.30
2022-08-25T00:12:13.947Z,3.90
2022-08-25T00:13:13.960Z,3.90
2022-08-25T00:14:13.977Z,4.00
2022-08-25T00:15:13.996Z,3.30
2022-08-25T00:16:14.076Z,3.70
2022-08-25T00:17:14.134Z,3.90
2022-08-25T00:18:19.844Z,4.20
2022-08-25T00:19:14.074Z,4.30
2022-08-25T00:20:14.085Z,3.70
2022-08-25T00:21:14.102Z,3.90
2022-08-25T00:22:14.116Z,4.10
2022-08-25T00:23:14.141Z,4.30
2022-08-25T00:24:14.158Z,4.00
2022-08-25T00:25:14.172Z,4.00
2022-08-25T00:26:14.192Z,4.10
2022-08-25T00:27:14.205Z,3.80
2022-08-25T00:28:14.440Z,3.90
2022-08-25T00:29:14.240Z,3.90
2022-08-25T00:30:14.262Z,3.80
2022-08-25T00:31:14.307Z,4.10
2022-08-25T00:32:14.293Z,3.80
2022-08-25T00:33:14.321Z,4.10
2022-08-25T00:34:14.332Z,4.10
2022-08-25T00:35:14.350Z,4.10
2022-08-25T00:36:14.362Z,3.50
2022-08-25T00:37:14.384Z,4.10
2022-08-25T00:38:14.412Z,4.10
2022-08-25T00:39:14.421Z,4.00
2022-08-25T00:40:14.467Z,4.30
2022-08-25T00:41:14.452Z,4.10
2022-08-25T00:42:16.135Z,4.10
2022-08-25T00:43:14.489Z,3.80
2022-08-25T00:44:14.507Z,3.80
2022-08-25T00:45:14.521Z,3.80
2022-08-25T00:46:14.603Z,4.30
2022-08-25T00:47:14.558Z,3.90
2022-08-25T00:48:14.577Z,4.30
2022-08-25T00:49:24.654Z,4.20
2022-08-25T00:50:14.626Z,4.40
2022-08-25T00:51:14.626Z,3.90
2022-08-25T00:52:14.645Z,4.60
2022-08-25T00:53:14.665Z,4.30
2022-08-25T00:54:14.679Z,4.50
2022-08-25T00:55:14.696Z,3.90
2022-08-25T00:56:14.717Z,3.90
2022-08-25T00:57:14.737Z,3.90
2022-08-25T00:58:14.763Z,3.70
2022-08-25T00:59:14.769Z,3.90
2022-08-25T01:00:14.789Z,4.30
2022-08-25T01:01:14.838Z,4.20
2022-08-25T01:02:14.875Z,4.40
2022-08-25T01:03:14.836Z,4.40
2022-08-25T01:04:14.857Z,4.40
2022-08-25T01:05:14.875Z,3.90
2022-08-25T01:06:14.889Z,4.20
2022-08-25T01:07:17.381Z,4.20
2022-08-25T01:08:16.380Z,3.80
2022-08-25T01:09:14.945Z,3.70
2022-08-25T01:10:14.958Z,3.60
2022-08-25T01:11:14.982Z,4.20
2022-08-25T01:12:14.995Z,4.40
2022-08-25T01:13:16.851Z,4.40
2022-08-25T01:14:15.037Z,3.90
2022-08-25T01:15:15.045Z,3.90
2022-08-25T01:16:15.090Z,4.10
2022-08-25T01:17:15.090Z,4.00
2022-08-25T01:18:15.094Z,4.10
2022-08-25T01:19:15.551Z,4.00
2022-08-25T01:20:15.131Z,3.90
2022-08-25T01:21:15.153Z,3.90
2022-08-25T01:22:15.170Z,4.30
2022-08-25T01:23:15.185Z,4.20
2022-08-25T01:24:15.204Z,4.00
2022-08-25T01:25:15.219Z,4.10
2022-08-25T01:26:15.239Z,4.50
2022-08-25T01:27:15.255Z,4.20
2022-08-25T01:28:15.272Z,3.90
2022-08-25T01:29:15.287Z,3.90
2022-08-25T01:30:15.304Z,5.00
2022-08-25T01:31:23.694Z,4.30
2022-08-25T01:32:15.345Z,3.90
2022-08-25T01:33:15.459Z,4.30
2022-08-25T01:34:15.373Z,3.90
2022-08-25T01:35:15.393Z,4.20
2022-08-25T01:36:15.410Z,4.20
2022-08-25T01:37:15.428Z,4.40
2022-08-25T01:38:15.445Z,4.10
2022-08-25T01:39:15.467Z,4.20
2022-08-25T01:40:15.580Z,4.40
2022-08-25T01:41:15.503Z,4.30
2022-08-25T01:42:15.515Z,4.20
2022-08-25T01:43:15.534Z,4.30
2022-08-25T01:44:16.381Z,4.40
2022-08-25T01:45:15.569Z,4.00
2022-08-25T01:46:15.854Z,4.50
2022-08-25T01:47:15.601Z,3.90
2022-08-25T01:48:15.619Z,4.30
2022-08-25T01:49:15.645Z,4.10
2022-08-25T01:50:15.654Z,4.40
2022-08-25T01:51:15.669Z,4.60
2022-08-25T01:52:15.689Z,3.90
2022-08-25T01:53:15.809Z,4.00
2022-08-25T01:54:15.721Z,4.30
2022-08-25T01:55:15.741Z,4.20
2022-08-25T01:56:15.758Z,4.10
2022-08-25T01:57:15.780Z,4.40
2022-08-25T01:58:15.788Z,4.30
2022-08-25T01:59:15.817Z,4.70
2022-08-25T02:00:15.824Z,4.20
2022-08-25T02:01:16.057Z,4.40
2022-08-25T02:02:18.307Z,4.00
2022-08-25T02:03:19.019Z,4.10
2022-08-25T02:04:15.895Z,4.20
2022-08-25T02:05:16.588Z,4.00
2022-08-25T02:06:15.933Z,3.80
2022-08-25T02:07:15.947Z,4.40
2022-08-25T02:08:16.063Z,4.10
2022-08-25T02:09:15.981Z,4.20
2022-08-25T02:10:15.994Z,4.20
2022-08-25T02:11:16.019Z,4.10
2022-08-25T02:12:16.043Z,4.20
2022-08-25T02:13:16.054Z,4.40
2022-08-25T02:14:16.070Z,4.70
2022-08-25T02:15:16.084Z,3.90
2022-08-25T02:16:16.145Z,4.50
2022-08-25T02:17:16.127Z,4.20
2022-08-25T02:18:16.136Z,4.00
2022-08-25T02:19:16.153Z,4.40
2022-08-25T02:20:16.173Z,4.00
2022-08-25T02:21:16.188Z,4.30
2022-08-25T02:22:16.207Z,4.30
2022-08-25T02:23:16.225Z,4.30
2022-08-25T02:24:16.239Z,4.50
2022-08-25T02:25:16.257Z,4.30
2022-08-25T02:26:16.275Z,4.10
2022-08-25T02:27:16.292Z,4.10
2022-08-25T02:28:16.309Z,4.00
2022-08-25T02:29:16.326Z,4.90
2022-08-25T02:30:16.348Z,3.90
2022-08-25T02:31:16.418Z,4.20
2022-08-25T02:32:16.379Z,4.60
2022-08-25T02:33:16.397Z,4.30
2022-08-25T02:34:16.414Z,4.10
2022-08-25T02:35:16.432Z,4.10
2022-08-25T02:36:16.444Z,4.30
2022-08-25T02:37:16.467Z,3.80
2022-08-25T02:38:16.488Z,4.20
2022-08-25T02:39:16.501Z,3.90
2022-08-25T02:40:16.604Z,3.80
2022-08-25T02:41:16.534Z,4.10
2022-08-25T02:42:16.553Z,4.30
2022-08-25T02:43:16.567Z,4.00
2022-08-25T02:44:16.586Z,4.10
2022-08-25T02:45:16.602Z,4.10
2022-08-25T02:46:16.725Z,3.80
2022-08-25T02:47:16.639Z,3.80
2022-08-25T02:48:16.656Z,3.90
2022-08-25T02:49:16.671Z,4.30
2022-08-25T02:50:16.698Z,3.80
2022-08-25T02:51:16.707Z,3.60
2022-08-25T02:52:16.722Z,3.70
2022-08-25T02:53:16.740Z,3.90
2022-08-25T02:54:16.764Z,3.70
2022-08-25T02:55:16.775Z,4.00
2022-08-25T02:56:16.797Z,4.10
2022-08-25T02:57:16.810Z,3.80
2022-08-25T02:58:16.826Z,3.80
2022-08-25T02:59:16.845Z,3.80
2022-08-25T03:00:16.859Z,4.00
2022-08-25T03:01:17.027Z,3.80
2022-08-25T03:02:16.894Z,4.00
2022-08-25T03:03:16.914Z,4.30
2022-08-25T03:04:16.933Z,3.70
2022-08-25T03:05:16.984Z,4.00
2022-08-25T03:06:16.959Z,3.50
2022-08-25T03:07:16.982Z,3.90
2022-08-25T03:08:17.000Z,3.60
2022-08-25T03:09:17.015Z,4.00
2022-08-25T03:10:17.036Z,3.80
2022-08-25T03:11:17.048Z,3.80
2022-08-25T03:12:17.070Z,3.70
2022-08-25T03:13:17.080Z,3.70
2022-08-25T03:14:17.104Z,3.80
2022-08-25T03:15:17.118Z,4.20
2022-08-25T03:16:17.151Z,4.00
2022-08-25T03:17:17.150Z,3.70
2022-08-25T03:18:17.173Z,3.70
2022-08-25T03:19:17.187Z,3.70
2022-08-25T03:20:17.203Z,4.20
2022-08-25T03:21:17.226Z,3.70
2022-08-25T03:22:17.238Z,4.00
2022-08-25T03:23:17.255Z,4.10
2022-08-25T03:24:17.271Z,4.20
2022-08-25T03:25:19.955Z,4.20
2022-08-25T03:26:17.307Z,3.70
2022-08-25T03:27:17.326Z,3.90
2022-08-25T03:28:17.341Z,3.30
2022-08-25T03:29:17.357Z,3.80
2022-08-25T03:30:17.373Z,3.60
2022-08-25T03:31:17.461Z,3.80
2022-08-25T03:32:17.413Z,3.40
2022-08-25T03:33:17.424Z,4.20
2022-08-25T03:34:17.442Z,3.70
2022-08-25T03:35:17.458Z,3.70
2022-08-25T03:36:17.478Z,3.80
2022-08-25T03:37:17.489Z,3.80
2022-08-25T03:38:17.511Z,4.10
2022-08-25T03:39:17.524Z,3.70
2022-08-25T03:40:17.659Z,3.90
2022-08-25T03:41:17.557Z,3.60
2022-08-25T03:42:17.573Z,3.60
2022-08-25T03:43:17.591Z,3.60
2022-08-25T03:44:17.619Z,3.70
2022-08-25T03:45:17.630Z,3.80
2022-08-25T03:46:17.692Z,3.80
2022-08-25T03:47:17.663Z,3.70
2022-08-25T03:48:17.688Z,4.00
2022-08-25T03:49:17.709Z,3.60
2022-08-25T03:50:17.732Z,3.80
2022-08-25T03:51:17.845Z,3.70
2022-08-25T03:52:17.751Z,3.90
2022-08-25T03:53:17.766Z,4.00
2022-08-25T03:54:17.781Z,3.90
2022-08-25T03:55:17.801Z,3.90
2022-08-25T03:56:17.819Z,3.60
2022-08-25T03:57:17.834Z,4.00
2022-08-25T03:58:17.857Z,3.60
2022-08-25T03:59:17.868Z,4.00
2022-08-25T04:00:17.878Z,3.90
2022-08-25T04:01:18.302Z,3.60
2022-08-25T04:02:17.962Z,3.60
2022-08-25T04:03:17.931Z,3.40
2022-08-25T04:04:17.950Z,3.80
2022-08-25T04:05:17.968Z,3.80
2022-08-25T04:06:17.976Z,3.80
2022-08-25T04:07:18.000Z,3.60
2022-08-25T04:08:18.016Z,4.00
2022-08-25T04:09:18.031Z,3.50
2022-08-25T04:10:18.046Z,3.50
2022-08-25T04:11:18.067Z,3.60
2022-08-25T04:12:18.081Z,3.70
2022-08-25T04:13:18.097Z,3.70
2022-08-25T04:14:18.112Z,4.00
2022-08-25T04:15:18.135Z,3.50
2022-08-25T04:16:18.275Z,4.10
2022-08-25T04:17:18.163Z,3.80
2022-08-25T04:18:18.180Z,3.70
2022-08-25T04:19:18.194Z,3.60
2022-08-25T04:20:18.216Z,3.70
2022-08-25T04:21:18.231Z,3.70
2022-08-25T04:22:18.246Z,3.80
2022-08-25T04:23:18.263Z,3.60
2022-08-25T04:24:18.283Z,3.50
2022-08-25T04:25:18.338Z,3.70
2022-08-25T04:26:18.411Z,3.70
2022-08-25T04:27:18.338Z,3.70
2022-08-25T04:28:18.347Z,3.60
2022-08-25T04:29:18.360Z,3.90
2022-08-25T04:30:18.390Z,3.70
2022-08-25T04:31:18.560Z,4.50
2022-08-25T04:32:18.409Z,3.60
2022-08-25T04:33:18.430Z,4.00
2022-08-25T04:34:29.890Z,4.20
2022-08-25T04:35:18.464Z,3.80
2022-08-25T04:36:18.476Z,4.70
2022-08-25T04:37:18.497Z,4.10
2022-08-25T04:38:18.510Z,4.40
2022-08-25T04:39:18.532Z,3.90
2022-08-25T04:40:18.647Z,3.80
2022-08-25T04:41:18.562Z,3.60
2022-08-25T04:42:18.577Z,3.40
2022-08-25T04:43:18.591Z,3.60
2022-08-25T04:44:18.669Z,3.70
2022-08-25T04:45:18.625Z,4.10
2022-08-25T04:46:20.439Z,4.00
2022-08-25T04:47:18.660Z,3.90
2022-08-25T04:48:18.676Z,4.30
2022-08-25T04:49:18.695Z,3.90
2022-08-25T04:50:18.712Z,3.70
2022-08-25T04:51:18.727Z,4.10
2022-08-25T04:52:18.746Z,4.00
2022-08-25T04:53:18.759Z,4.10
2022-08-25T04:54:18.793Z,4.30
2022-08-25T04:55:18.797Z,4.10
2022-08-25T04:56:18.808Z,3.90
2022-08-25T04:57:18.826Z,3.70
2022-08-25T04:58:18.841Z,3.60
2022-08-25T04:59:18.866Z,3.60
2022-08-25T05:00:18.883Z,4.00
2022-08-25T05:01:18.978Z,4.10
2022-08-25T05:02:18.912Z,4.00
2022-08-25T05:03:18.925Z,4.20
2022-08-25T05:04:27.646Z,4.00
2022-08-25T05:05:18.959Z,3.80
2022-08-25T05:06:18.975Z,4.10
2022-08-25T05:07:18.991Z,4.20
2022-08-25T05:08:19.005Z,3.60
2022-08-25T05:09:19.829Z,4.10
2022-08-25T05:10:19.039Z,4.00
2022-08-25T05:11:19.059Z,3.80
2022-08-25T05:12:19.072Z,4.20
2022-08-25T05:13:19.095Z,4.10
2022-08-25T05:14:19.105Z,3.90
2022-08-25T05:15:19.132Z,4.10
2022-08-25T05:16:19.223Z,4.10
2022-08-25T05:17:19.162Z,3.80
2022-08-25T05:18:19.170Z,4.30
2022-08-25T05:19:19.189Z,4.10
2022-08-25T05:20:19.202Z,3.90
2022-08-25T05:21:19.226Z,3.90
2022-08-25T05:22:19.237Z,3.80
2022-08-25T05:23:19.264Z,4.00
2022-08-25T05:24:19.274Z,4.00
2022-08-25T05:25:19.288Z,4.00
2022-08-25T05:26:20.616Z,4.10
2022-08-25T05:27:19.316Z,3.90
2022-08-25T05:28:19.338Z,3.80
2022-08-25T05:29:19.454Z,3.20
2022-08-25T05:30:19.371Z,4.20
2022-08-25T05:31:19.422Z,4.20
2022-08-25T05:32:19.404Z,4.10
2022-08-25T05:33:19.419Z,4.20
2022-08-25T05:34:19.486Z,4.10
2022-08-25T05:35:19.452Z,3.70
2022-08-25T05:36:19.474Z,4.30
2022-08-25T05:37:19.534Z,4.10
2022-08-25T05:38:19.505Z,4.00
2022-08-25T05:39:19.521Z,4.20
2022-08-25T05:40:19.603Z,4.60
2022-08-25T05:41:19.550Z,4.40
2022-08-25T05:42:19.618Z,4.20
2022-08-25T05:43:19.584Z,4.30
2022-08-25T05:44:21.360Z,4.00
2022-08-25T05:45:20.686Z,4.30
2022-08-25T05:46:19.734Z,3.90
2022-08-25T05:47:19.658Z,3.90
2022-08-25T05:48:19.665Z,4.10
2022-08-25T05:49:19.683Z,3.80
2022-08-25T05:50:19.699Z,3.80
2022-08-25T05:51:19.720Z,4.40
2022-08-25T05:52:20.174Z,4.00
2022-08-25T05:53:19.746Z,4.50
2022-08-25T05:54:19.768Z,3.80
2022-08-25T05:55:19.780Z,4.30
2022-08-25T05:56:19.800Z,3.90
2022-08-25T05:57:19.816Z,4.00
2022-08-25T05:58:19.836Z,3.80
2022-08-25T05:59:19.844Z,4.20
2022-08-25T06:00:19.865Z,4.10
2022-08-25T06:01:20.030Z,4.00
2022-08-25T06:02:19.899Z,3.90
2022-08-25T06:03:20.012Z,4.30
2022-08-25T06:04:19.965Z,4.10
2022-08-25T06:05:19.947Z,3.90
2022-08-25T06:06:19.961Z,3.70
2022-08-25T06:07:19.982Z,3.80
2022-08-25T06:08:20.000Z,4.20
2022-08-25T06:09:20.014Z,4.20
2022-08-25T06:10:20.039Z,3.40
2022-08-25T06:11:20.046Z,4.10
2022-08-25T06:12:20.063Z,4.00
2022-08-25T06:13:28.699Z,3.90
2022-08-25T06:14:20.097Z,3.70
2022-08-25T06:15:20.115Z,3.50
2022-08-25T06:16:20.212Z,3.70
2022-08-25T06:17:20.148Z,4.00
2022-08-25T06:18:20.166Z,4.10
2022-08-25T06:19:20.180Z,4.00
2022-08-25T06:20:20.198Z,3.90
2022-08-25T06:21:20.222Z,3.80
2022-08-25T06:22:20.231Z,3.80
2022-08-25T06:23:20.245Z,3.70
2022-08-25T06:24:20.263Z,4.00
2022-08-25T06:25:20.278Z,3.40
2022-08-25T06:26:20.749Z,3.70
2022-08-25T06:27:20.311Z,4.50
2022-08-25T06:28:20.333Z,3.80
2022-08-25T06:29:20.346Z,3.80
2022-08-25T06:30:24.548Z,4.00
2022-08-25T06:31:20.462Z,4.00
2022-08-25T06:32:20.399Z,3.60
2022-08-25T06:33:20.418Z,3.60
2022-08-25T06:34:20.431Z,3.80
2022-08-25T06:35:20.450Z,3.60
2022-08-25T06:36:20.471Z,3.60
2022-08-25T06:37:25.021Z,3.80
2022-08-25T06:38:20.499Z,3.70
2022-08-25T06:39:20.515Z,4.00
2022-08-25T06:40:20.582Z,3.70
2022-08-25T06:41:20.560Z,3.80
2022-08-25T06:42:20.566Z,3.80
2022-08-25T06:43:20.587Z,3.60
2022-08-25T06:44:20.600Z,3.80
2022-08-25T06:45:20.621Z,3.50
2022-08-25T06:46:20.717Z,3.70
2022-08-25T06:47:20.710Z,3.80
2022-08-25T06:48:20.666Z,3.90
2022-08-25T06:49:20.687Z,4.10
2022-08-25T06:50:20.705Z,3.80
2022-08-25T06:51:20.718Z,4.00
2022-08-25T06:52:20.739Z,3.90
2022-08-25T06:53:20.756Z,4.10
2022-08-25T06:54:20.768Z,4.20
2022-08-25T06:55:20.787Z,4.00
2022-08-25T06:56:20.805Z,3.50
2022-08-25T06:57:20.822Z,4.00
2022-08-25T06:58:20.839Z,3.70
2022-08-25T06:59:20.867Z,4.10
2022-08-25T07:00:20.873Z,3.70
2022-08-25T07:01:20.935Z,4.10
2022-08-25T07:02:22.007Z,4.50
2022-08-25T07:04:20.940Z,4.20
2022-08-25T07:05:27.334Z,3.90
2022-08-25T07:06:20.998Z,3.80
2022-08-25T07:07:20.996Z,3.70
2022-08-25T07:08:21.012Z,4.30
2022-08-25T07:09:21.026Z,3.80
2022-08-25T07:10:21.045Z,3.60
2022-08-25T07:11:21.062Z,4.10
2022-08-25T07:12:21.077Z,3.90
2022-08-25T07:13:21.103Z,3.50
2022-08-25T07:14:21.120Z,4.00
2022-08-25T07:15:21.292Z,4.00
2022-08-25T07:16:21.181Z,3.90
2022-08-25T07:17:21.177Z,3.80
2022-08-25T07:18:21.179Z,3.80
2022-08-25T07:19:21.340Z,3.70
2022-08-25T07:20:21.319Z,3.90
2022-08-25T07:21:24.801Z,3.30
2022-08-25T07:22:21.247Z,3.60
2022-08-25T07:23:21.267Z,4.10
2022-08-25T07:24:21.299Z,3.90
2022-08-25T07:25:21.302Z,4.00
2022-08-25T07:26:38.553Z,3.70
2022-08-25T07:27:21.334Z,3.40
2022-08-25T07:28:21.351Z,3.90
2022-08-25T07:29:31.642Z,3.80
2022-08-25T07:30:21.385Z,3.20
2022-08-25T07:31:21.454Z,4.00
2022-08-25T07:32:21.418Z,3.90
2022-08-25T07:33:21.441Z,3.80
2022-08-25T07:34:21.455Z,3.20
2022-08-25T07:35:24.140Z,4.00
2022-08-25T07:36:21.488Z,3.80
2022-08-25T07:37:38.297Z,3.70
2022-08-25T07:38:21.525Z,3.50
2022-08-25T07:39:22.168Z,3.90
2022-08-25T07:40:21.644Z,3.70
2022-08-25T07:41:21.576Z,3.60
2022-08-25T07:42:21.594Z,3.50
2022-08-25T07:43:21.711Z,3.70
2022-08-25T07:44:21.635Z,3.60
2022-08-25T07:45:21.645Z,3.90
2022-08-25T07:46:21.718Z,3.70
2022-08-25T07:47:22.578Z,3.70
2022-08-25T07:48:21.700Z,3.40
2022-08-25T07:49:23.107Z,3.70
2022-08-25T07:50:21.812Z,3.70
2022-08-25T07:51:21.786Z,3.30
2022-08-25T07:52:21.770Z,3.70
2022-08-25T07:53:21.792Z,3.80
2022-08-25T07:54:21.801Z,3.70
2022-08-25T07:55:21.824Z,4.20
2022-08-25T07:56:21.842Z,3.80
2022-08-25T07:57:21.860Z,3.90
2022-08-25T07:58:21.874Z,3.80
2022-08-25T07:59:21.894Z,3.30
2022-08-25T08:00:21.971Z,3.80
2022-08-25T08:01:21.973Z,3.60
2022-08-25T08:02:22.018Z,4.20
2022-08-25T08:03:35.461Z,3.90
2022-08-25T08:04:21.978Z,4.00
2022-08-25T08:05:23.989Z,4.00
2022-08-25T08:06:22.020Z,3.50
2022-08-25T08:07:22.841Z,3.30
2022-08-25T08:08:22.084Z,3.80
2022-08-25T08:09:22.065Z,3.90
2022-08-25T08:11:22.100Z,3.80
2022-08-25T08:12:22.120Z,3.80
2022-08-25T08:13:22.138Z,3.50
2022-08-25T08:14:22.154Z,3.60
2022-08-25T08:15:22.176Z,3.80
2022-08-25T08:16:22.283Z,3.70
2022-08-25T08:17:22.207Z,3.50
2022-08-25T08:18:22.229Z,3.80
2022-08-25T08:19:23.064Z,3.90
2022-08-25T08:20:23.314Z,4.00
2022-08-25T08:21:22.282Z,3.70
2022-08-25T08:22:22.301Z,3.70
2022-08-25T08:23:22.323Z,3.30
2022-08-25T08:24:44.008Z,3.60
2022-08-25T08:25:27.417Z,3.40
2022-08-25T08:26:22.530Z,3.50
2022-08-25T08:27:22.392Z,3.50
2022-08-25T08:28:22.409Z,3.50
2022-08-25T08:29:22.437Z,3.10
2022-08-25T08:30:25.962Z,3.50
2022-08-25T08:31:22.581Z,3.30
2022-08-25T08:32:25.226Z,3.70
2022-08-25T08:33:22.498Z,3.50
2022-08-25T08:34:24.886Z,3.30
2022-08-25T08:35:22.542Z,3.30
2022-08-25T08:36:22.568Z,3.70
2022-08-25T08:37:23.103Z,3.70
2022-08-25T08:38:27.183Z,3.50
2022-08-25T08:39:22.611Z,3.40
2022-08-25T08:40:22.685Z,3.50
2022-08-25T08:41:23.213Z,2.90
2022-08-25T08:42:22.673Z,3.20
2022-08-25T08:43:22.687Z,3.30
2022-08-25T08:44:22.806Z,3.50
2022-08-25T08:45:22.720Z,3.20
2022-08-25T08:46:22.892Z,3.20
2022-08-25T08:47:22.760Z,3.60
2022-08-25T08:48:22.778Z,3.20
2022-08-25T08:49:22.802Z,3.20
2022-08-25T08:50:27.978Z,3.30
2022-08-25T08:51:23.057Z,3.20
2022-08-25T08:52:22.851Z,3.20
2022-08-25T08:53:22.881Z,2.70
2022-08-25T08:54:23.047Z,3.20
2022-08-25T08:55:22.907Z,3.20
2022-08-25T08:56:22.924Z,3.00
2022-08-25T08:57:22.946Z,3.20
2022-08-25T08:58:26.476Z,2.90
2022-08-25T08:59:29.972Z,2.80
2022-08-25T09:00:23.000Z,2.90
2022-08-25T09:01:23.060Z,2.90
2022-08-25T09:02:39.598Z,2.90
2022-08-25T09:03:23.150Z,2.90
2022-08-25T09:04:24.312Z,2.70
2022-08-25T09:05:23.125Z,3.00
2022-08-25T09:06:23.116Z,3.60
2022-08-25T09:07:23.148Z,3.20
2022-08-25T09:08:23.158Z,3.40
2022-08-25T09:09:23.181Z,3.00
2022-08-25T09:10:23.197Z,2.90
2022-08-25T09:11:23.218Z,3.20
2022-08-25T09:12:23.254Z,2.70
2022-08-25T09:13:26.287Z,2.70
2022-08-25T09:14:23.278Z,2.60
2022-08-25T09:15:23.294Z,2.30
2022-08-25T09:16:34.422Z,2.50
2022-08-25T09:17:23.336Z,2.30
2022-08-25T09:18:23.356Z,2.60
2022-08-25T09:19:23.841Z,2.60
2022-08-25T09:20:23.396Z,2.50
2022-08-25T09:21:23.415Z,2.70
2022-08-25T09:22:34.885Z,2.70
2022-08-25T09:23:23.456Z,2.70
2022-08-25T09:24:23.477Z,2.80
2022-08-25T09:25:39.724Z,2.90
2022-08-25T09:26:23.514Z,2.60
2022-08-25T09:27:23.534Z,3.30
2022-08-25T09:28:23.660Z,2.80
2022-08-25T09:29:23.575Z,2.70
2022-08-25T09:30:25.094Z,2.70
2022-08-25T09:31:29.211Z,2.60
2022-08-25T09:32:24.428Z,2.50
2022-08-25T09:33:23.660Z,2.50
2022-08-25T09:34:23.678Z,2.50
2022-08-25T09:35:23.699Z,2.30
2022-08-25T09:36:23.718Z,2.50
2022-08-25T09:37:23.741Z,2.40
2022-08-25T09:38:23.773Z,2.10
2022-08-25T09:39:23.781Z,2.30
2022-08-25T09:40:23.866Z,2.30
2022-08-25T09:41:23.835Z,2.00
2022-08-25T09:42:24.077Z,2.20
2022-08-25T09:43:23.861Z,2.10
2022-08-25T09:44:23.984Z,2.60
2022-08-25T09:45:23.903Z,2.50
2022-08-25T09:46:24.045Z,2.10
2022-08-25T09:47:23.943Z,2.60
2022-08-25T09:48:23.961Z,2.40
2022-08-25T09:49:23.984Z,2.10
2022-08-25T09:50:24.007Z,2.10
2022-08-25T09:51:24.130Z,2.10
2022-08-25T09:52:25.371Z,2.20
2022-08-25T09:53:24.072Z,2.20
2022-08-25T09:54:25.456Z,2.40
2022-08-25T09:55:24.113Z,2.40
2022-08-25T09:56:24.132Z,2.10
2022-08-25T09:57:24.153Z,2.40
2022-08-25T09:58:24.173Z,2.20
2022-08-25T09:59:34.483Z,2.00
2022-08-25T10:00:24.220Z,2.40
2022-08-25T10:01:24.296Z,2.60
2022-08-25T10:02:24.264Z,2.40
2022-08-25T10:03:24.810Z,2.50
2022-08-25T10:04:24.303Z,2.40
2022-08-25T10:05:24.411Z,2.30
2022-08-25T10:06:24.347Z,2.50
2022-08-25T10:07:24.365Z,2.30
2022-08-25T10:08:24.656Z,2.10
2022-08-25T10:09:24.422Z,2.20
2022-08-25T10:10:24.433Z,2.20
2022-08-25T10:11:24.450Z,2.30
2022-08-25T10:12:24.977Z,2.20
2022-08-25T10:13:24.507Z,2.50
2022-08-25T10:14:24.561Z,1.90
2022-08-25T10:15:29.749Z,2.00
2022-08-25T10:16:25.198Z,2.40
2022-08-25T10:17:24.635Z,2.60
2022-08-25T10:18:25.693Z,2.00
2022-08-25T10:19:24.625Z,2.30
2022-08-25T10:20:24.652Z,2.00
2022-08-25T10:21:24.677Z,2.20
2022-08-25T10:22:24.775Z,2.30
2022-08-25T10:23:24.717Z,2.30
2022-08-25T10:24:24.739Z,2.40
2022-08-25T10:25:24.761Z,2.10
2022-08-25T10:26:24.782Z,2.50
2022-08-25T10:27:27.422Z,2.10
2022-08-25T10:28:24.831Z,2.20
2022-08-25T10:29:24.846Z,2.30
2022-08-25T10:30:24.870Z,2.20
2022-08-25T10:31:25.044Z,1.90
2022-08-25T10:32:24.913Z,1.90
2022-08-25T10:33:24.938Z,2.20
2022-08-25T10:34:24.958Z,2.20
2022-08-25T10:35:24.980Z,2.30
2022-08-25T10:36:25.102Z,2.10
2022-08-25T10:37:25.027Z,2.10
2022-08-25T10:38:27.193Z,2.10
2022-08-25T10:39:34.514Z,2.50
2022-08-25T10:40:25.142Z,2.30
2022-08-25T10:41:25.113Z,2.20
2022-08-25T10:42:25.964Z,2.00
2022-08-25T10:43:25.163Z,2.20
2022-08-25T10:44:25.184Z,2.20
2022-08-25T10:45:25.206Z,1.90
2022-08-25T10:46:25.339Z,2.20
2022-08-25T10:47:25.254Z,2.00
2022-08-25T10:48:25.276Z,2.10
2022-08-25T10:49:25.301Z,2.20
2022-08-25T10:50:25.319Z,2.30
2022-08-25T10:51:25.794Z,2.10
2022-08-25T10:52:25.367Z,1.90
2022-08-25T10:53:25.416Z,2.00
2022-08-25T10:54:25.412Z,2.30
2022-08-25T10:55:25.438Z,2.20
2022-08-25T10:56:25.460Z,2.00
2022-08-25T10:57:25.486Z,2.20
2022-08-25T10:58:25.502Z,2.20
2022-08-25T10:59:25.531Z,2.30
2022-08-25T11:00:31.406Z,1.90
2022-08-25T11:01:28.943Z,2.10
2022-08-25T11:02:25.601Z,2.10
2022-08-25T11:03:25.647Z,2.00
2022-08-25T11:04:25.650Z,2.60
2022-08-25T11:05:25.733Z,2.20
2022-08-25T11:06:25.690Z,2.30
2022-08-25T11:07:25.724Z,2.20
2022-08-25T11:08:25.739Z,2.00
2022-08-25T11:09:25.769Z,1.90
2022-08-25T11:10:25.785Z,2.00
2022-08-25T11:11:25.816Z,2.20
2022-08-25T11:12:25.835Z,1.90
2022-08-25T11:13:25.859Z,1.90
2022-08-25T11:14:25.879Z,2.00
2022-08-25T11:15:25.907Z,2.00
2022-08-25T11:16:25.961Z,2.30
2022-08-25T11:17:25.954Z,2.20
2022-08-25T11:18:25.978Z,2.00
2022-08-25T11:19:26.000Z,1.80
2022-08-25T11:20:27.377Z,2.00
2022-08-25T11:21:26.051Z,2.00
2022-08-25T11:22:26.076Z,2.30
2022-08-25T11:23:26.099Z,2.20
2022-08-25T11:24:26.121Z,2.00
2022-08-25T11:25:26.147Z,2.10
2022-08-25T11:26:31.049Z,2.00
2022-08-25T11:27:26.196Z,2.10
2022-08-25T11:28:26.214Z,2.00
2022-08-25T11:29:26.239Z,2.40
2022-08-25T11:30:26.289Z,2.30
2022-08-25T11:31:26.283Z,2.30
2022-08-25T11:32:26.312Z,2.10
2022-08-25T11:33:26.336Z,2.00
2022-08-25T11:34:26.356Z,2.10
2022-08-25T11:35:26.380Z,2.30
2022-08-25T11:36:29.667Z,2.20
2022-08-25T11:37:26.428Z,2.00
2022-08-25T11:38:26.454Z,2.20
2022-08-25T11:39:28.930Z,2.00
2022-08-25T11:40:26.542Z,1.70
2022-08-25T11:41:26.521Z,1.90
2022-08-25T11:42:26.556Z,1.90
2022-08-25T11:43:26.574Z,1.80
2022-08-25T11:44:26.597Z,1.70
2022-08-25T11:45:26.614Z,1.80
2022-08-25T11:46:27.858Z,1.70
2022-08-25T11:47:26.661Z,1.70
2022-08-25T11:48:26.684Z,1.90
2022-08-25T11:49:26.713Z,1.90
2022-08-25T11:50:30.309Z,1.90
2022-08-25T11:51:26.774Z,1.70
2022-08-25T11:52:30.572Z,1.90
2022-08-25T11:53:29.003Z,1.90
2022-08-25T11:54:26.822Z,2.10
2022-08-25T11:55:26.857Z,1.70
2022-08-25T11:56:26.977Z,2.00
2022-08-25T11:57:26.904Z,1.70
2022-08-25T11:58:26.920Z,1.90
2022-08-25T11:59:26.944Z,1.70
2022-08-25T12:00:26.968Z,1.60
2022-08-25T12:01:26.993Z,1.50
2022-08-25T12:02:27.016Z,1.70
2022-08-25T12:03:27.143Z,1.80
2022-08-25T12:04:27.135Z,1.70
2022-08-25T12:05:27.118Z,1.60
2022-08-25T12:06:27.112Z,1.80
2022-08-25T12:07:27.136Z,1.60
2022-08-25T12:08:27.208Z,1.60
2022-08-25T12:09:27.178Z,1.70
2022-08-25T12:10:27.201Z,1.70
2022-08-25T12:11:27.225Z,1.60
2022-08-25T12:12:27.248Z,1.70
2022-08-25T12:13:27.273Z,1.60
2022-08-25T12:14:28.205Z,1.40
2022-08-25T12:15:27.320Z,1.70
2022-08-25T12:16:27.420Z,1.80
2022-08-25T12:17:27.370Z,1.40
2022-08-25T12:18:27.388Z,1.70
2022-08-25T12:19:28.724Z,1.70
2022-08-25T12:20:27.439Z,1.40
2022-08-25T12:21:27.465Z,1.80
2022-08-25T12:22:27.488Z,1.60
2022-08-25T12:23:27.517Z,1.80
2022-08-25T12:24:27.530Z,1.80
2022-08-25T12:25:27.562Z,1.60
2022-08-25T12:26:27.578Z,1.90
2022-08-25T12:27:28.178Z,1.60
2022-08-25T12:28:27.627Z,1.50
2022-08-25T12:29:27.655Z,1.70
2022-08-25T12:30:27.827Z,2.00
2022-08-25T12:31:27.696Z,1.60
2022-08-25T12:32:27.724Z,1.50
2022-08-25T12:33:27.751Z,1.60
2022-08-25T12:34:27.772Z,1.60
2022-08-25T12:35:29.547Z,1.60
2022-08-25T12:36:27.814Z,1.60
2022-08-25T12:37:27.842Z,1.90
2022-08-25T12:38:27.866Z,1.70
2022-08-25T12:39:27.885Z,1.70
2022-08-25T12:40:27.960Z,1.90
2022-08-25T12:41:31.012Z,1.90
2022-08-25T12:42:27.962Z,1.80
2022-08-25T12:43:27.988Z,2.00
2022-08-25T12:44:28.005Z,1.70
2022-08-25T12:45:28.029Z,1.70
2022-08-25T12:46:28.147Z,1.70
2022-08-25T12:47:28.106Z,1.60
2022-08-25T12:48:28.102Z,1.90
2022-08-25T12:49:28.133Z,1.80
2022-08-25T12:50:28.148Z,1.90
2022-08-25T12:51:28.175Z,1.60
2022-08-25T12:52:28.313Z,1.80
2022-08-25T12:53:28.222Z,1.70
2022-08-25T12:54:28.242Z,1.70
2022-08-25T12:55:28.268Z,1.90
2022-08-25T12:56:28.293Z,1.90
2022-08-25T12:57:29.615Z,1.90
2022-08-25T12:58:38.670Z,1.80
2022-08-25T12:59:28.463Z,1.70
2022-08-25T13:01:35.808Z,2.00
2022-08-25T13:02:28.575Z,1.80
2022-08-25T13:03:28.579Z,2.10
2022-08-25T13:04:28.484Z,1.90
2022-08-25T13:05:28.509Z,1.80
2022-08-25T13:06:28.530Z,1.60
2022-08-25T13:07:28.602Z,1.70
2022-08-25T13:08:33.770Z,2.10
2022-08-25T13:09:28.597Z,1.70
2022-08-25T13:10:28.622Z,1.30
2022-08-25T13:11:28.644Z,1.60
2022-08-25T13:12:28.742Z,1.60
2022-08-25T13:13:28.692Z,1.70
2022-08-25T13:14:28.738Z,1.60
2022-08-25T13:15:28.740Z,1.70
2022-08-25T13:16:29.848Z,1.50
2022-08-25T13:17:29.036Z,1.40
2022-08-25T13:18:28.814Z,2.00
2022-08-25T13:19:34.540Z,1.70
2022-08-25T13:20:28.858Z,1.60
2022-08-25T13:21:28.885Z,1.80